Time;durP1;ratioP1;P1;durP2;ratioP2;P2;SDS_P1;SDS_P2;PMS_P1;PMS_P2;Temp;Humidity;BMP_temperature;BMP_pressure;BME280_temperature;BME280_humidity;BME280_pressure;Samples;Min_cycle;Max_cycle;Signal;HPM_P1;HPM_P2
2022/09/13 00:00:45;;;;;;;22.73;17.40;;;18.00;99.90;;;;;;5050008;28;20040;-87
2022/09/13 00:03:11;;;;;;;20.92;16.75;;;18.00;99.90;;;;;;5016423;28;20051;-88
2022/09/13 00:05:38;;;;;;;21.88;17.98;;;18.00;99.90;;;;;;5033972;28;20040;-88
2022/09/13 00:08:05;;;;;;;22.95;17.90;;;18.00;99.90;;;;;;5032493;28;20055;-88
2022/09/13 00:10:33;;;;;;;25.17;17.75;;;18.00;99.90;;;;;;5033714;28;20476;-87
2022/09/13 00:13:00;;;;;;;22.00;17.42;;;18.00;99.90;;;;;;5049498;28;20040;-88
2022/09/13 00:15:27;;;;;;;24.90;17.58;;;18.00;99.90;;;;;;5033289;28;20080;-88
2022/09/13 00:17:52;;;;;;;21.88;17.42;;;17.90;99.90;;;;;;5032764;28;20041;-88
2022/09/13 00:20:18;;;;;;;21.05;16.60;;;17.90;99.90;;;;;;5032423;28;20052;-88
2022/09/13 00:22:45;;;;;;;21.30;16.42;;;17.90;99.90;;;;;;5033196;28;20037;-88
2022/09/13 00:25:10;;;;;;;23.08;16.33;;;17.90;99.90;;;;;;5015917;28;20076;-89
2022/09/13 00:27:37;;;;;;;22.58;15.05;;;17.80;99.90;;;;;;5017169;28;20522;-88
2022/09/13 00:30:05;;;;;;;21.75;16.42;;;17.80;99.90;;;;;;5050089;28;20423;-89
2022/09/13 00:32:32;;;;;;;20.70;15.70;;;17.80;99.90;;;;;;5034826;28;20040;-90
2022/09/13 00:34:58;;;;;;;20.45;15.55;;;17.80;99.90;;;;;;5019212;28;20055;-88
2022/09/13 00:37:24;;;;;;;21.95;15.23;;;17.70;99.90;;;;;;5033733;28;20048;-88
2022/09/13 00:39:49;;;;;;;25.58;16.27;;;17.80;99.90;;;;;;5018037;28;20190;-88
2022/09/13 00:42:15;;;;;;;22.25;15.40;;;17.70;99.90;;;;;;5017265;28;20059;-88
2022/09/13 00:44:59;;;;;;;20.02;14.15;;;17.70;99.90;;;;;;5018132;28;20036;-89
2022/09/13 00:47:36;;;;;;;17.27;13.82;;;17.70;99.90;;;;;;5032643;28;20055;-88
2022/09/13 00:50:23;;;;;;;17.38;12.52;;;18.60;99.90;;;;;;5049669;28;20066;-89
2022/09/13 00:53:14;;;;;;;18.92;13.88;;;17.70;99.90;;;;;;5033317;28;20079;-87
2022/09/13 00:55:51;;;;;;;20.63;14.95;;;17.70;99.90;;;;;;5033553;28;20103;-88
2022/09/13 00:58:19;;;;;;;20.23;15.07;;;17.60;99.90;;;;;;5049493;28;20037;-89
2022/09/13 01:00:46;;;;;;;25.35;16.10;;;17.60;99.90;;;;;;5036993;28;20106;-88
2022/09/13 01:03:15;;;;;;;23.20;16.60;;;17.60;99.90;;;;;;5052871;28;20032;-88
2022/09/13 01:05:49;;;;;;;22.17;16.17;;;17.60;99.90;;;;;;5037194;28;20071;-87
2022/09/13 01:08:21;;;;;;;24.40;18.00;;;17.60;99.90;;;;;;5053270;28;20097;-87
2022/09/13 01:10:49;;;;;;;27.30;19.98;;;17.60;99.90;;;;;;5020796;28;20040;-87
2022/09/13 01:13:31;;;;;;;26.08;17.25;;;17.60;99.90;;;;;;5052813;28;20036;-87
2022/09/13 01:15:58;;;;;;;26.75;20.10;;;17.60;99.90;;;;;;5035739;28;20078;-87
2022/09/13 01:18:24;;;;;;;26.83;18.80;;;17.50;99.90;;;;;;5020192;28;20136;-87
2022/09/13 01:20:50;;;;;;;27.50;18.00;;;17.50;99.90;;;;;;5035803;28;20052;-87
2022/09/13 01:23:31;;;;;;;23.75;16.98;;;17.50;99.90;;;;;;5036432;28;20074;-87
2022/09/13 01:26:34;;;;;;;25.55;16.52;;;17.50;99.90;;;;;;5036150;28;20045;-87
2022/09/13 01:29:09;;;;;;;22.05;15.32;;;17.50;99.90;;;;;;5052305;28;20048;-87
2022/09/13 01:31:44;;;;;;;23.55;14.80;;;18.60;99.90;;;;;;5052889;28;20058;-87
2022/09/13 01:34:44;;;;;;;24.35;16.70;;;17.60;99.90;;;;;;5036077;28;20040;-87
2022/09/13 01:37:36;;;;;;;19.15;14.65;;;17.50;99.90;;;;;;5036110;28;20542;-87
2022/09/13 01:40:15;;;;;;;20.15;13.88;;;18.00;99.90;;;;;;5052921;28;20427;-87
2022/09/13 01:42:59;;;;;;;16.13;12.50;;;17.50;99.90;;;;;;5052813;28;20094;-87
2022/09/13 01:45:52;;;;;;;17.05;12.30;;;17.50;99.90;;;;;;5036110;28;20392;-87
2022/09/13 01:48:28;;;;;;;19.17;11.95;;;17.50;99.90;;;;;;5052727;28;20097;-87
2022/09/13 01:51:06;;;;;;;18.70;13.02;;;17.50;99.90;;;;;;5052162;28;20483;-87
2022/09/13 01:53:43;;;;;;;16.00;12.13;;;17.50;99.90;;;;;;5035898;28;20496;-87
2022/09/13 01:56:28;;;;;;;15.63;12.23;;;17.50;99.90;;;;;;5035683;28;20407;-86
2022/09/13 01:59:29;;;;;;;16.08;11.40;;;17.50;99.90;;;;;;5051850;28;20044;-87
2022/09/13 02:02:34;;;;;;;17.52;11.35;;;17.50;99.90;;;;;;5048650;28;20052;-87
2022/09/13 02:05:13;;;;;;;14.43;11.07;;;17.50;99.90;;;;;;5033989;28;20403;-87
2022/09/13 02:07:42;;;;;;;15.95;11.38;;;17.50;99.90;;;;;;5034675;28;20098;-87
2022/09/13 02:10:37;;;;;;;13.27;11.15;;;17.50;99.90;;;;;;5052545;28;20068;-87
2022/09/13 02:13:09;;;;;;;14.43;11.07;;;17.50;99.90;;;;;;5035165;28;20044;-87
2022/09/13 02:15:45;;;;;;;13.07;11.18;;;17.50;99.90;;;;;;5051887;28;20094;-89
2022/09/13 02:18:17;;;;;;;15.18;11.90;;;18.40;99.90;;;;;;5051706;28;20102;-87
2022/09/13 02:20:46;;;;;;;18.65;12.50;;;17.50;99.90;;;;;;5034481;28;20051;-87
2022/09/13 02:23:24;;;;;;;21.73;12.57;;;17.50;99.90;;;;;;5035804;28;20041;-87
2022/09/13 02:25:56;;;;;;;20.27;11.88;;;17.60;99.90;;;;;;5034716;28;20056;-87
2022/09/13 02:28:31;;;;;;;15.80;12.18;;;17.70;99.90;;;;;;5035382;28;20036;-87
2022/09/13 02:31:00;;;;;;;14.45;11.25;;;17.60;99.90;;;;;;5035390;28;20036;-87
2022/09/13 02:33:32;;;;;;;15.30;12.05;;;17.60;99.90;;;;;;5034152;28;20040;-87
2022/09/13 02:36:06;;;;;;;13.18;11.18;;;17.60;99.90;;;;;;5034940;28;20158;-87
2022/09/13 02:38:51;;;;;;;18.75;11.18;;;17.60;99.90;;;;;;5034389;28;20078;-86
2022/09/13 02:41:29;;;;;;;13.77;10.95;;;17.70;99.90;;;;;;5034496;28;20561;-87
2022/09/13 02:44:22;;;;;;;13.52;11.27;;;17.70;99.90;;;;;;5051580;28;20565;-87
2022/09/13 02:47:10;;;;;;;17.65;11.98;;;17.70;99.90;;;;;;5050871;28;20500;-87
2022/09/13 02:49:54;;;;;;;15.32;11.48;;;17.70;99.90;;;;;;5051085;28;20051;-87
2022/09/13 02:52:52;;;;;;;23.60;11.98;;;17.70;99.90;;;;;;5034729;28;20131;-86
2022/09/13 02:55:49;;;;;;;15.48;12.00;;;17.70;99.90;;;;;;5014531;28;20052;-87
2022/09/13 02:58:21;;;;;;;18.70;12.40;;;17.70;99.90;;;;;;5051090;28;20055;-87
2022/09/13 03:00:47;;;;;;;16.63;12.05;;;17.70;99.90;;;;;;5050765;28;20048;-86
2022/09/13 03:03:15;;;;;;;16.73;11.43;;;17.70;99.90;;;;;;5033570;28;20074;-86
2022/09/13 03:05:41;;;;;;;11.15;9.02;;;17.70;99.90;;;;;;5051110;28;20040;-87
2022/09/13 03:08:09;;;;;;;11.35;7.32;;;17.60;99.90;;;;;;5050106;28;20044;-86
2022/09/13 03:11:14;;;;;;;8.98;4.63;;;17.60;99.90;;;;;;5034522;28;20051;-87
2022/09/13 03:14:08;;;;;;;5.50;2.47;;;17.60;99.90;;;;;;5013701;28;20500;-87
2022/09/13 03:16:43;;;;;;;2.10;1.50;;;17.60;99.90;;;;;;5033341;28;20080;-86
2022/09/13 03:19:41;;;;;;;3.42;1.67;;;17.50;99.90;;;;;;5041100;28;20102;-86
2022/09/13 03:22:38;;;;;;;6.30;1.60;;;17.50;99.90;;;;;;4991729;28;20080;-87
2022/09/13 03:25:12;;;;;;;2.53;1.17;;;17.40;99.90;;;;;;5029713;28;20096;-86
2022/09/13 03:28:00;;;;;;;4.97;1.25;;;17.40;99.90;;;;;;5014196;28;20045;-86
2022/09/13 03:30:25;;;;;;;1.92;1.15;;;17.10;99.90;;;;;;5013992;28;20591;-86
2022/09/13 03:33:10;;;;;;;3.15;1.00;;;17.40;99.90;;;;;;5029904;28;20167;-86
2022/09/13 03:35:36;;;;;;;3.47;1.30;;;17.30;99.90;;;;;;5014078;28;20488;-86
2022/09/13 03:38:10;;;;;;;2.08;1.08;;;17.30;99.90;;;;;;5013055;28;20103;-86
2022/09/13 03:40:44;;;;;;;2.20;1.13;;;17.30;99.90;;;;;;5030406;28;20557;-86
2022/09/13 03:43:24;;;;;;;2.70;1.27;;;17.40;99.90;;;;;;5029940;28;20127;-86
2022/09/13 03:45:57;;;;;;;3.85;1.40;;;17.40;99.90;;;;;;5013395;28;20060;-86
2022/09/13 03:48:23;;;;;;;2.53;1.38;;;17.40;99.90;;;;;;5014132;28;20045;-86
2022/09/13 03:50:49;;;;;;;3.35;1.33;;;17.40;99.90;;;;;;5012618;28;20037;-86
2022/09/13 03:53:24;;;;;;;4.65;2.47;;;17.40;99.90;;;;;;5013738;28;20041;-86
2022/09/13 03:55:50;;;;;;;2.70;1.70;;;17.40;99.90;;;;;;5013089;28;20523;-86
2022/09/13 03:58:19;;;;;;;3.45;2.15;;;17.40;99.90;;;;;;5013582;28;20090;-86
2022/09/13 04:00:45;;;;;;;4.65;2.15;;;17.40;99.90;;;;;;5030002;28;20075;-86
2022/09/13 04:03:12;;;;;;;7.43;1.20;;;17.40;99.90;;;;;;4996628;28;20123;-86
2022/09/13 04:05:38;;;;;;;3.90;1.20;;;17.40;99.90;;;;;;5029833;28;20055;-86
2022/09/13 04:08:05;;;;;;;5.00;1.20;;;17.40;99.90;;;;;;5029266;28;20571;-87
2022/09/13 04:10:31;;;;;;;2.78;0.88;;;17.40;99.90;;;;;;5013645;28;20557;-86
2022/09/13 04:12:59;;;;;;;4.03;0.68;;;17.40;99.90;;;;;;5013800;28;20049;-86
2022/09/13 04:15:25;;;;;;;3.92;0.73;;;17.40;99.90;;;;;;5013250;28;20045;-86
2022/09/13 04:17:51;;;;;;;3.30;0.60;;;17.40;99.90;;;;;;5013398;28;20102;-85
2022/09/13 04:20:17;;;;;;;2.30;0.68;;;17.40;99.90;;;;;;5047699;28;20139;-86
2022/09/13 04:22:49;;;;;;;1.98;0.65;;;17.40;99.90;;;;;;5033239;28;20059;-86
2022/09/13 04:25:15;;;;;;;6.03;0.55;;;17.40;99.90;;;;;;5032287;28;20109;-86
2022/09/13 04:27:41;;;;;;;2.97;0.63;;;17.40;99.90;;;;;;5016596;28;20080;-86
2022/09/13 04:30:07;;;;;;;2.58;0.77;;;17.30;99.90;;;;;;5037188;28;20044;-86
2022/09/13 04:32:33;;;;;;;2.53;0.55;;;17.30;99.90;;;;;;5053648;28;20447;-86
2022/09/13 04:34:59;;;;;;;2.50;0.55;;;17.30;99.90;;;;;;5052938;28;20151;-89
2022/09/13 04:37:25;;;;;;;2.50;0.60;;;17.30;99.90;;;;;;5037257;28;20048;-87
2022/09/13 04:39:51;;;;;;;3.25;0.73;;;17.30;99.90;;;;;;5020810;28;20044;-88
2022/09/13 04:42:18;;;;;;;2.35;0.73;;;17.30;99.90;;;;;;5021318;28;20552;-88
2022/09/13 04:44:44;;;;;;;2.83;1.10;;;17.30;99.90;;;;;;5021774;28;20044;-87
2022/09/13 04:47:10;;;;;;;2.40;0.68;;;17.30;99.90;;;;;;5037425;28;20052;-86
2022/09/13 04:49:36;;;;;;;7.20;0.80;;;17.30;99.90;;;;;;5036833;28;20049;-86
2022/09/13 04:52:02;;;;;;;4.30;0.80;;;17.30;99.90;;;;;;5072606;28;20040;-87
2022/09/13 04:54:31;;;;;;;4.43;1.00;;;17.30;99.90;;;;;;5071611;28;20045;-86
2022/09/13 04:56:57;;;;;;;5.47;0.73;;;18.30;99.90;;;;;;5054680;28;20496;-86
2022/09/13 04:59:23;;;;;;;1.98;0.80;;;17.30;99.90;;;;;;5020053;28;20049;-88
2022/09/13 05:01:54;;;;;;;2.05;1.00;;;17.40;99.90;;;;;;5054304;28;20040;-87
2022/09/13 05:04:22;;;;;;;4.45;1.08;;;17.30;99.90;;;;;;5053895;28;20083;-87
2022/09/13 05:06:49;;;;;;;5.72;0.80;;;17.30;99.90;;;;;;5053426;28;20131;-89
2022/09/13 05:09:15;;;;;;;2.03;1.00;;;17.30;99.90;;;;;;5038147;28;20056;-86
2022/09/13 05:11:42;;;;;;;2.70;0.90;;;17.30;99.90;;;;;;5035972;28;20131;-88
2022/09/13 05:14:11;;;;;;;2.20;1.38;;;17.20;99.90;;;;;;5018684;28;20128;-87
2022/09/13 05:16:37;;;;;;;2.15;0.90;;;17.30;99.90;;;;;;5064580;28;20101;-86
2022/09/13 05:19:03;;;;;;;4.25;1.05;;;17.20;99.90;;;;;;5039984;28;20131;-86
2022/09/13 05:21:29;;;;;;;6.93;1.45;;;17.20;99.90;;;;;;4995888;28;20094;-87
2022/09/13 05:23:56;;;;;;;5.20;1.13;;;17.20;99.90;;;;;;5013196;28;20484;-88
2022/09/13 05:26:25;;;;;;;3.40;1.00;;;17.20;99.90;;;;;;5014134;28;20045;-92
2022/09/13 05:28:51;;;;;;;4.50;1.25;;;17.20;99.90;;;;;;4997132;28;20056;-87
2022/09/13 05:31:19;;;;;;;3.28;1.08;;;17.20;99.90;;;;;;5029631;28;20422;-87
2022/09/13 05:33:47;;;;;;;5.10;1.13;;;17.20;99.90;;;;;;5011556;28;20092;-87
2022/09/13 05:36:12;;;;;;;5.60;1.30;;;17.20;99.90;;;;;;4996853;28;20513;-87
2022/09/13 05:38:38;;;;;;;7.55;1.75;;;17.20;99.90;;;;;;5029130;28;20132;-87
2022/09/13 05:41:05;;;;;;;5.00;1.60;;;17.20;99.90;;;;;;4996459;28;20603;-86
2022/09/13 05:43:34;;;;;;;6.95;1.42;;;17.20;99.90;;;;;;5029339;28;20455;-86
2022/09/13 05:46:20;;;;;;;5.85;1.45;;;17.20;99.90;;;;;;5014140;28;20433;-86
2022/09/13 05:48:47;;;;;;;5.35;1.40;;;17.20;99.90;;;;;;5033206;28;20365;-87
2022/09/13 05:51:20;;;;;;;5.05;0.90;;;17.10;99.90;;;;;;5031910;28;20049;-86
2022/09/13 05:53:50;;;;;;;4.72;1.02;;;17.20;99.90;;;;;;5032298;28;20048;-86
2022/09/13 05:56:25;;;;;;;5.07;0.80;;;17.10;99.90;;;;;;5016759;28;20041;-87
2022/09/13 05:58:52;;;;;;;9.27;1.75;;;17.20;99.90;;;;;;5015455;28;20489;-88
2022/09/13 06:01:20;;;;;;;8.38;1.10;;;17.20;99.90;;;;;;4999751;28;20571;-88
2022/09/13 06:03:49;;;;;;;7.78;1.10;;;17.20;99.90;;;;;;5014719;28;20132;-86
2022/09/13 06:06:16;;;;;;;4.88;0.95;;;17.30;99.90;;;;;;5015827;28;20043;-87
2022/09/13 06:08:42;;;;;;;10.13;1.38;;;17.30;99.90;;;;;;5015774;28;20075;-87
2022/09/13 06:11:10;;;;;;;5.15;1.17;;;17.30;99.90;;;;;;5015003;28;20045;-87
2022/09/13 06:13:37;;;;;;;6.50;1.05;;;17.30;99.90;;;;;;5032124;28;20041;-87
2022/09/13 06:16:07;;;;;;;5.47;0.82;;;17.30;99.90;;;;;;5031063;28;20084;-87
2022/09/13 06:18:33;;;;;;;4.55;0.80;;;17.40;99.90;;;;;;5020265;28;20140;-87
2022/09/13 06:21:00;;;;;;;8.48;1.20;;;17.40;99.90;;;;;;5050761;28;20063;-86
2022/09/13 06:23:27;;;;;;;4.95;1.00;;;17.40;99.90;;;;;;5052105;28;20064;-87
2022/09/13 06:26:08;;;;;;;7.07;1.00;;;17.40;99.90;;;;;;5051752;28;20028;-87
2022/09/13 06:28:35;;;;;;;13.73;1.38;;;17.40;99.90;;;;;;5033847;28;20519;-86
2022/09/13 06:31:06;;;;;;;5.38;0.77;;;17.40;99.90;;;;;;5051816;28;20136;-86
2022/09/13 06:33:33;;;;;;;13.73;1.27;;;17.40;99.90;;;;;;5050749;28;20131;-86
2022/09/13 06:36:07;;;;;;;4.53;1.15;;;17.50;99.90;;;;;;5051727;28;20040;-87
2022/09/13 06:38:34;;;;;;;11.57;1.70;;;17.60;99.90;;;;;;5034480;28;20041;-87
2022/09/13 06:41:05;;;;;;;3.88;0.88;;;17.60;99.90;;;;;;5018128;28;20056;-87
2022/09/13 06:43:31;;;;;;;4.75;0.80;;;17.60;99.90;;;;;;5035016;28;20036;-87
2022/09/13 06:46:05;;;;;;;7.43;1.08;;;17.70;99.90;;;;;;5050968;28;20049;-87
2022/09/13 06:48:36;;;;;;;11.02;0.90;;;17.70;99.90;;;;;;5051664;28;20033;-87
2022/09/13 06:51:04;;;;;;;3.72;0.50;;;17.80;99.90;;;;;;5017676;28;20055;-87
2022/09/13 06:53:30;;;;;;;9.35;1.25;;;17.80;99.90;;;;;;5034762;28;20298;-86
2022/09/13 06:56:00;;;;;;;3.50;1.02;;;17.90;99.90;;;;;;5034070;28;20076;-86
2022/09/13 06:58:28;;;;;;;11.68;0.90;;;17.90;99.90;;;;;;5034119;28;20036;-86
2022/09/13 07:01:03;;;;;;;7.75;0.95;;;17.80;99.90;;;;;;5034670;28;20522;-86
2022/09/13 07:03:29;;;;;;;10.77;0.95;;;17.90;99.90;;;;;;5050469;28;20048;-86
2022/09/13 07:05:54;;;;;;;6.07;0.63;;;17.90;99.90;;;;;;5051746;28;20063;-86
2022/09/13 07:08:20;;;;;;;5.15;0.90;;;17.90;99.90;;;;;;5034454;28;20104;-86
2022/09/13 07:10:46;;;;;;;7.97;1.40;;;17.90;99.90;;;;;;5034985;28;20041;-86
2022/09/13 07:13:12;;;;;;;5.68;1.40;;;18.00;99.90;;;;;;5018248;28;20080;-85
2022/09/13 07:15:37;;;;;;;4.78;0.90;;;18.20;99.90;;;;;;5017350;28;20054;-86
2022/09/13 07:18:03;;;;;;;5.25;0.50;;;18.20;99.90;;;;;;5017837;28;20044;-86
2022/09/13 07:20:29;;;;;;;4.80;0.45;;;18.20;99.90;;;;;;5049832;28;20052;-86
2022/09/13 07:22:54;;;;;;;2.33;0.45;;;18.20;99.90;;;;;;5050934;28;20028;-86
2022/09/13 07:25:22;;;;;;;2.80;0.57;;;18.20;99.90;;;;;;5050265;28;20044;-87
2022/09/13 07:27:48;;;;;;;8.52;0.85;;;18.20;99.90;;;;;;5017804;28;20041;-86
2022/09/13 07:30:14;;;;;;;5.10;0.52;;;18.10;99.90;;;;;;5051193;28;20052;-88
2022/09/13 07:32:41;;;;;;;5.95;0.60;;;18.00;99.90;;;;;;5050728;28;20075;-87
2022/09/13 07:35:07;;;;;;;4.57;0.82;;;18.00;99.90;;;;;;5051514;28;20467;-87
2022/09/13 07:37:32;;;;;;;3.72;0.50;;;18.00;99.90;;;;;;5033835;28;20066;-87
2022/09/13 07:39:58;;;;;;;5.40;0.55;;;18.00;99.90;;;;;;5018071;28;20093;-87
2022/09/13 07:42:24;;;;;;;2.78;0.35;;;18.10;99.90;;;;;;5017355;28;20190;-87
2022/09/13 07:44:49;;;;;;;5.78;1.35;;;18.10;99.90;;;;;;5034248;28;20067;-88
2022/09/13 07:47:15;;;;;;;5.00;0.70;;;18.50;99.90;;;;;;5067840;28;20326;-88
2022/09/13 07:49:41;;;;;;;2.05;0.50;;;18.30;99.90;;;;;;5017326;28;20123;-87
2022/09/13 07:52:06;;;;;;;3.28;0.57;;;18.40;99.90;;;;;;5034044;28;20066;-87
2022/09/13 07:54:34;;;;;;;6.30;0.70;;;18.60;99.90;;;;;;5049663;28;20040;-88
2022/09/13 07:57:00;;;;;;;3.38;0.55;;;18.40;99.90;;;;;;5051081;28;20407;-87
2022/09/13 07:59:25;;;;;;;3.85;0.63;;;18.60;99.90;;;;;;5017302;28;20040;-88
2022/09/13 08:01:51;;;;;;;2.88;0.60;;;18.70;99.90;;;;;;5034744;28;20048;-88
2022/09/13 08:04:20;;;;;;;4.35;0.60;;;18.60;99.90;;;;;;5034512;28;20107;-88
2022/09/13 08:06:46;;;;;;;8.45;0.75;;;18.70;99.90;;;;;;5051331;28;20036;-88
2022/09/13 08:09:12;;;;;;;5.28;0.70;;;18.70;99.90;;;;;;5038833;28;20047;-88
2022/09/13 08:11:44;;;;;;;10.85;0.75;;;18.80;99.90;;;;;;5041248;28;20051;-88
2022/09/13 08:14:12;;;;;;;5.43;0.70;;;19.00;99.90;;;;;;5059065;28;20048;-88
2022/09/13 08:16:38;;;;;;;3.67;0.73;;;19.10;99.90;;;;;;5059942;28;20079;-89
2022/09/13 08:19:06;;;;;;;5.05;0.57;;;19.10;99.90;;;;;;5052609;28;20052;-88
2022/09/13 08:21:40;;;;;;;6.85;0.95;;;18.90;99.90;;;;;;5037872;28;20075;-88
2022/09/13 08:24:07;;;;;;;5.50;0.93;;;18.90;99.90;;;;;;5051218;28;20048;-89
2022/09/13 08:26:36;;;;;;;7.95;0.75;;;19.10;99.90;;;;;;5030888;28;20068;-88
2022/09/13 08:29:04;;;;;;;6.93;1.20;;;19.20;99.90;;;;;;5046690;28;20044;-88
2022/09/13 08:31:30;;;;;;;7.25;0.98;;;19.20;99.90;;;;;;5063281;28;20036;-88
2022/09/13 08:33:56;;;;;;;5.68;0.68;;;19.20;99.90;;;;;;5050486;28;20063;-88
2022/09/13 08:36:24;;;;;;;3.97;0.60;;;19.20;99.90;;;;;;5032682;28;20551;-88
2022/09/13 08:38:56;;;;;;;5.30;0.88;;;19.20;99.90;;;;;;5050343;28;20066;-88
2022/09/13 08:41:38;;;;;;;4.20;0.50;;;19.30;99.90;;;;;;5055437;28;20039;-88
2022/09/13 08:44:09;;;;;;;5.28;0.63;;;19.40;99.90;;;;;;5055128;28;20055;-87
2022/09/13 08:46:42;;;;;;;5.88;0.93;;;19.50;99.90;;;;;;5066278;28;20036;-88
2022/09/13 08:49:33;;;;;;;3.58;0.57;;;19.60;99.90;;;;;;5056224;28;20055;-88
2022/09/13 08:52:20;;;;;;;4.03;0.32;;;19.60;99.90;;;;;;5067430;28;20036;-88
2022/09/13 08:54:48;;;;;;;5.72;0.57;;;19.40;99.90;;;;;;5045863;28;20597;-89
2022/09/13 08:57:30;;;;;;;6.32;0.50;;;19.30;99.90;;;;;;5046973;28;20055;-89
2022/09/13 09:00:01;;;;;;;;;;;19.30;99.90;;;;;;5062721;28;20048;-88
2022/09/13 09:02:49;;;;;;;3.45;0.50;;;19.40;99.90;;;;;;5062062;28;19920;-88
2022/09/13 09:05:22;;;;;;;5.97;0.68;;;19.60;99.90;;;;;;5044686;28;20063;-88
2022/09/13 09:07:51;;;;;;;;;;;19.60;99.90;;;;;;5076603;28;20087;-89
2022/09/13 09:10:19;;;;;;;7.60;0.60;;;19.70;99.90;;;;;;5055217;28;19920;-88
2022/09/13 09:13:06;;;;;;;6.32;0.47;;;18.80;99.90;;;;;;5055897;28;20161;-89
2022/09/13 09:15:46;;;;;;;6.78;0.73;;;19.90;99.90;;;;;;5037444;28;20052;-90
2022/09/13 09:18:32;;;;;;;6.20;0.40;;;20.10;99.90;;;;;;5074600;28;20090;-88
2022/09/13 09:21:00;;;;;;;4.55;0.40;;;20.20;99.90;;;;;;5058259;28;20136;-87
2022/09/13 09:23:34;;;;;;;5.47;0.70;;;20.20;99.90;;;;;;5042767;28;20036;-87
2022/09/13 09:26:20;;;;;;;9.95;0.57;;;20.20;99.90;;;;;;5042186;28;20102;-87
2022/09/13 09:28:53;;;;;;;7.97;1.20;;;20.20;99.90;;;;;;5072864;28;20222;-88
2022/09/13 09:31:28;;;;;;;6.65;1.48;;;20.30;99.90;;;;;;5056046;28;20123;-88
2022/09/13 09:33:53;;;;;;;5.72;0.73;;;20.50;99.90;;;;;;5037650;28;20574;-88
2022/09/13 09:36:48;;;;;;;7.47;1.58;;;20.70;99.90;;;;;;5054053;28;20041;-87
2022/09/13 09:39:15;;;;;;;2.97;0.43;;;20.90;99.90;;;;;;5057183;28;20052;-87
2022/09/13 09:41:43;;;;;;;4.70;0.73;;;20.80;99.90;;;;;;5039627;28;20055;-86
2022/09/13 09:44:23;;;;;;;8.77;0.75;;;21.10;99.90;;;;;;5040182;28;20045;-87
2022/09/13 09:47:17;;;;;;;6.05;0.73;;;20.90;99.90;;;;;;5057108;28;20106;-86
2022/09/13 09:50:08;;;;;;;5.28;1.13;;;21.00;99.90;;;;;;5038045;28;20053;-87
2022/09/13 09:52:45;;;;;;;6.32;1.25;;;21.40;99.90;;;;;;5038980;28;20047;-87
2022/09/13 09:55:26;;;;;;;3.72;0.60;;;21.30;99.90;;;;;;5053892;28;20102;-84
2022/09/13 09:57:54;;;;;;;5.28;0.52;;;21.30;99.90;;;;;;5054190;28;20049;-85
2022/09/13 10:00:23;;;;;;;7.75;1.00;;;21.20;99.90;;;;;;5054895;28;20478;-82
2022/09/13 10:02:53;;;;;;;7.53;0.73;;;21.50;99.90;;;;;;5053475;28;20047;-81
2022/09/13 10:05:22;;;;;;;6.25;1.80;;;21.00;99.90;;;;;;5071995;28;20395;-81
2022/09/13 10:07:57;;;;;;;9.60;0.98;;;20.80;99.90;;;;;;5036275;28;20036;-82
2022/09/13 10:10:35;;;;;;;7.50;0.47;;;20.60;99.90;;;;;;5071470;28;20044;-82
2022/09/13 10:13:05;;;;;;;5.78;0.75;;;20.40;99.90;;;;;;5053799;28;20515;-82
2022/09/13 10:15:33;;;;;;;8.13;0.77;;;20.40;99.90;;;;;;5035758;28;20048;-82
2022/09/13 10:18:00;;;;;;;5.00;0.68;;;20.60;99.90;;;;;;5071357;28;20048;-82
2022/09/13 10:20:26;;;;;;;5.47;0.60;;;21.00;99.90;;;;;;5070195;28;20056;-81
2022/09/13 10:23:13;;;;;;;5.60;0.70;;;21.10;99.90;;;;;;5070985;28;20036;-81
2022/09/13 10:25:43;;;;;;;4.80;0.63;;;21.20;99.90;;;;;;5035678;28;20040;-82
2022/09/13 10:28:16;;;;;;;4.35;0.70;;;21.20;99.90;;;;;;5051472;28;20127;-82
2022/09/13 10:30:45;;;;;;;3.13;0.60;;;21.00;99.90;;;;;;5069377;28;20045;-82
2022/09/13 10:33:29;;;;;;;4.00;0.52;;;20.90;99.90;;;;;;5068489;28;20032;-80
2022/09/13 10:36:01;;;;;;;3.53;0.70;;;20.80;99.90;;;;;;5051553;28;20056;-82
2022/09/13 10:38:31;;;;;;;8.10;0.90;;;20.80;99.90;;;;;;5051546;28;20075;-82
2022/09/13 10:40:58;;;;;;;4.60;0.68;;;21.00;99.90;;;;;;5068818;28;20523;-81
2022/09/13 10:43:27;;;;;;;6.35;0.65;;;21.20;99.90;;;;;;5034989;28;20073;-81
2022/09/13 10:45:54;;;;;;;5.72;0.68;;;21.40;99.90;;;;;;5051057;28;20090;-82
2022/09/13 10:48:23;;;;;;;8.68;0.70;;;21.60;99.90;;;;;;5051781;28;20041;-81
2022/09/13 10:51:17;;;;;;;5.10;0.60;;;21.90;99.90;;;;;;5051151;28;20037;-81
2022/09/13 10:53:43;;;;;;;3.90;0.88;;;21.90;99.90;;;;;;5068715;28;20496;-82
2022/09/13 10:56:25;;;;;;;7.00;1.35;;;22.00;99.90;;;;;;5051814;28;20098;-81
2022/09/13 10:59:14;;;;;;;4.00;0.68;;;22.00;99.90;;;;;;5034544;28;20137;-82
2022/09/13 11:02:05;;;;;;;5.07;0.90;;;21.90;99.90;;;;;;5051648;28;20049;-81
2022/09/13 11:04:50;;;;;;;6.30;0.60;;;22.00;99.90;;;;;;5036427;28;20093;-81
2022/09/13 11:07:42;;;;;;;2.90;0.32;;;22.10;99.90;;;;;;5036151;28;20127;-81
2022/09/13 11:10:18;;;;;;;2.87;0.50;;;22.10;99.90;;;;;;5037235;28;20488;-81
2022/09/13 11:13:06;;;;;;;5.00;0.63;;;22.20;99.90;;;;;;5052474;28;20692;-82
2022/09/13 11:15:49;;;;;;;7.63;0.82;;;22.40;99.90;;;;;;5069975;28;20048;-81
2022/09/13 11:18:15;;;;;;;6.88;0.63;;;22.40;99.90;;;;;;5051998;28;20055;-81
2022/09/13 11:20:53;;;;;;;4.30;0.90;;;22.50;99.90;;;;;;5069024;28;20053;-82
2022/09/13 11:23:37;;;;;;;5.13;0.93;;;22.60;99.90;;;;;;5050582;28;20102;-82
2022/09/13 11:26:26;;;;;;;5.75;0.88;;;22.80;99.90;;;;;;5069792;28;20089;-82
2022/09/13 11:29:20;;;;;;;5.28;0.45;;;22.90;98.90;;;;;;5068497;28;20043;-81
2022/09/13 11:31:54;;;;;;;7.88;0.70;;;23.10;98.30;;;;;;5069046;28;20045;-81
2022/09/13 11:34:50;;;;;;;5.20;0.60;;;23.20;99.90;;;;;;5050913;28;20044;-81
2022/09/13 11:37:43;;;;;;;5.32;0.85;;;23.20;99.60;;;;;;5050125;28;20053;-81
2022/09/13 11:40:31;;;;;;;11.07;0.98;;;23.00;99.90;;;;;;5050759;28;20048;-82
2022/09/13 11:43:27;;;;;;;6.20;0.68;;;22.70;99.90;;;;;;5068517;28;20051;-82
2022/09/13 11:46:07;;;;;;;4.55;0.60;;;22.50;99.90;;;;;;5049906;28;20040;-81
2022/09/13 11:48:57;;;;;;;4.80;0.88;;;22.50;99.90;;;;;;5050757;28;20055;-81
2022/09/13 11:51:41;;;;;;;11.23;0.70;;;22.60;99.90;;;;;;5068077;28;20583;-82
2022/09/13 11:54:22;;;;;;;3.33;0.57;;;22.70;99.90;;;;;;5049948;28;20498;-81
2022/09/13 11:56:53;;;;;;;7.47;1.00;;;22.80;99.90;;;;;;5068626;28;20055;-82
2022/09/13 11:59:33;;;;;;;6.78;1.23;;;23.00;99.90;;;;;;5050439;28;20037;-82
2022/09/13 12:02:10;;;;;;;5.90;1.02;;;23.20;99.90;;;;;;5050836;28;20051;-81
2022/09/13 12:04:49;;;;;;;4.15;0.93;;;23.30;99.90;;;;;;5034687;28;20080;-82
2022/09/13 12:07:44;;;;;;;7.85;0.88;;;23.40;99.80;;;;;;5050151;28;20040;-82
2022/09/13 12:10:24;;;;;;;7.57;1.02;;;23.40;99.40;;;;;;5050405;28;20145;-82
2022/09/13 12:12:51;;;;;;;5.97;0.85;;;23.50;99.50;;;;;;5050235;28;20522;-82
2022/09/13 12:15:41;;;;;;;6.68;0.80;;;23.50;99.90;;;;;;5032800;28;20040;-81
2022/09/13 12:18:19;;;;;;;6.00;0.90;;;23.60;99.60;;;;;;5033554;28;20093;-80
2022/09/13 12:20:54;;;;;;;8.02;1.10;;;23.50;99.60;;;;;;5049415;28;20056;-82
2022/09/13 12:23:32;;;;;;;5.53;1.15;;;23.30;99.90;;;;;;5017393;28;20110;-81
2022/09/13 12:26:04;;;;;;;5.22;0.70;;;23.30;99.90;;;;;;5067468;28;20052;-82
2022/09/13 12:28:34;;;;;;;5.05;0.60;;;23.20;99.90;;;;;;5066938;28;20055;-82
2022/09/13 12:31:14;;;;;;;8.52;0.98;;;23.00;99.90;;;;;;5049947;28;20048;-82
2022/09/13 12:33:42;;;;;;;8.50;0.80;;;22.80;99.90;;;;;;5032785;28;20364;-82
2022/09/13 12:36:19;;;;;;;9.48;1.10;;;22.70;99.90;;;;;;5032676;28;20090;-82
2022/09/13 12:39:22;;;;;;;3.88;0.88;;;22.70;99.90;;;;;;5067471;28;20053;-82
2022/09/13 12:42:09;;;;;;;4.60;0.57;;;22.60;99.90;;;;;;5048713;28;20052;-81
2022/09/13 12:45:02;;;;;;;6.80;1.10;;;22.60;99.90;;;;;;5067288;28;20087;-81
2022/09/13 12:47:53;;;;;;;7.80;1.25;;;22.50;99.90;;;;;;5032644;28;20088;-83
2022/09/13 12:50:50;;;;;;;5.18;0.70;;;22.30;99.90;;;;;;5048665;28;20040;-81
2022/09/13 12:53:34;;;;;;;5.15;0.93;;;22.30;99.90;;;;;;5049043;28;20059;-81
2022/09/13 12:56:33;;;;;;;9.27;1.00;;;22.30;99.90;;;;;;5066415;28;20072;-82
2022/09/13 12:59:20;;;;;;;6.10;0.93;;;22.30;99.90;;;;;;5048683;28;20041;-82
2022/09/13 13:01:49;;;;;;;6.57;0.70;;;22.30;99.90;;;;;;5067227;28;20045;-82
2022/09/13 13:04:27;;;;;;;6.65;0.80;;;22.40;99.90;;;;;;5048935;28;20485;-82
2022/09/13 13:07:00;;;;;;;8.13;0.88;;;22.40;99.90;;;;;;5048232;28;20037;-81
2022/09/13 13:09:32;;;;;;;3.53;0.70;;;22.40;99.90;;;;;;5049084;28;20139;-82
2022/09/13 13:11:58;;;;;;;5.00;0.80;;;22.20;99.90;;;;;;5048696;28;20048;-81
2022/09/13 13:14:39;;;;;;;6.50;0.68;;;22.20;99.90;;;;;;5049236;28;20098;-81
2022/09/13 13:17:42;;;;;;;8.20;0.73;;;22.20;99.80;;;;;;5067143;28;20044;-81